Time;durP1;ratioP1;P1;durP2;ratioP2;P2;SDS_P1;SDS_P2;PMS_P1;PMS_P2;Temp;Humidity;BMP_temperature;BMP_pressure;BME280_temperature;BME280_humidity;BME280_pressure;Samples;Min_cycle;Max_cycle;Signal;HPM_P1;HPM_P2
2023/09/01 00:00:03;;;;;;;5.50;3.90;;;;;;;18.97;100.00;99342.04;109387;1251;59887;-73
2023/09/01 00:02:32;;;;;;;4.20;3.80;;;;;;;18.93;100.00;99345.27;109409;1251;74636;-73
2023/09/01 00:05:05;;;;;;;4.40;4.00;;;;;;;18.90;100.00;99351.20;109395;1251;71445;-74
2023/09/01 00:07:32;;;;;;;3.90;3.60;;;;;;;18.87;100.00;99352.84;109418;1251;71459;-73
2023/09/01 00:10:00;;;;;;;5.60;3.80;;;;;;;18.87;100.00;99355.33;109394;1251;62133;-73
2023/09/01 00:12:27;;;;;;;5.40;3.70;;;;;;;18.86;100.00;99355.94;109438;1251;59188;-73
2023/09/01 00:14:55;;;;;;;4.70;3.80;;;;;;;18.81;100.00;99357.65;109419;1251;73360;-73
2023/09/01 00:17:22;;;;;;;6.80;4.10;;;;;;;18.76;100.00;99364.08;109417;1251;69869;-73
2023/09/01 00:19:50;;;;;;;4.20;3.70;;;;;;;18.76;100.00;99365.15;109415;1251;73211;-73
2023/09/01 00:22:17;;;;;;;4.30;3.90;;;;;;;18.78;100.00;99369.80;109363;1251;60373;-73
2023/09/01 00:24:45;;;;;;;4.80;4.30;;;;;;;18.81;100.00;99369.43;109405;1251;60671;-73
2023/09/01 00:27:12;;;;;;;8.20;4.70;;;;;;;18.82;100.00;99374.14;109409;1251;73640;-73
2023/09/01 00:29:40;;;;;;;6.70;4.80;;;;;;;18.80;100.00;99376.44;109364;1251;70100;-73
2023/09/01 00:32:07;;;;;;;5.40;4.40;;;;;;;18.75;100.00;99378.52;109354;1251;71349;-73
2023/09/01 00:34:35;;;;;;;7.30;4.30;;;;;;;18.72;100.00;99381.05;109369;1251;60716;-73
2023/09/01 00:37:03;;;;;;;4.60;3.90;;;;;;;18.68;100.00;99391.99;109274;1251;60058;-73
2023/09/01 00:39:30;;;;;;;5.10;4.20;;;;;;;18.65;100.00;99396.13;109372;1251;74667;-73
2023/09/01 00:41:59;;;;;;;5.50;4.70;;;;;;;18.63;100.00;99397.69;109288;1251;70807;-73
2023/09/01 00:44:26;;;;;;;4.90;4.30;;;;;;;18.60;100.00;99396.99;109412;1253;72674;-73
2023/09/01 00:46:53;;;;;;;5.30;4.80;;;;;;;18.55;100.00;99396.04;109360;1251;60425;-73
2023/09/01 00:49:21;;;;;;;10.00;4.70;;;;;;;18.51;100.00;99400.27;109460;1251;59346;-73
2023/09/01 00:51:48;;;;;;;4.90;4.50;;;;;;;18.48;100.00;99392.70;109116;1251;390040;-73
2023/09/01 00:54:16;;;;;;;4.60;4.20;;;;;;;18.47;100.00;99391.11;109426;1251;69514;-73
2023/09/01 00:56:44;;;;;;;5.90;4.40;;;;;;;18.46;100.00;99384.46;109266;1251;72485;-73
2023/09/01 00:59:12;;;;;;;5.10;4.60;;;;;;;18.43;100.00;99380.55;109244;1251;59015;-73
2023/09/01 01:01:40;;;;;;;5.30;4.70;;;;;;;18.40;100.00;99382.91;109378;1251;58894;-73
2023/09/01 01:04:08;;;;;;;7.70;4.70;;;;;;;18.37;100.00;99385.95;109394;1251;74775;-73
2023/09/01 01:06:40;;;;;;;7.20;4.10;;;;;;;18.35;100.00;99382.91;109406;1254;71107;-73
2023/09/01 01:09:27;;;;;;;4.20;3.90;;;;;;;18.34;100.00;99386.16;109319;1251;73785;-73
2023/09/01 01:12:03;;;;;;;7.30;4.60;;;;;;;18.32;100.00;99387.17;109353;1251;59193;-73
2023/09/01 01:14:40;;;;;;;5.40;4.70;;;;;;;18.30;100.00;99390.17;109369;1251;60024;-75
2023/09/01 01:17:09;;;;;;;4.70;4.30;;;;;;;18.27;100.00;99394.00;109406;1251;76064;-74
2023/09/01 01:19:57;;;;;;;7.90;4.40;;;;;;;18.24;100.00;99389.70;109232;1251;69773;-73
2023/09/01 01:22:33;;;;;;;6.10;4.90;;;;;;;18.24;100.00;99391.66;109244;1251;70560;-73
2023/09/01 01:25:08;;;;;;;5.20;4.70;;;;;;;18.23;100.00;99393.48;109407;1251;60046;-73
2023/09/01 01:27:36;;;;;;;4.20;3.70;;;;;;;18.21;100.00;99397.91;109355;1251;58875;-73
2023/09/01 01:30:07;;;;;;;5.50;4.40;;;;;;;18.19;100.00;99396.94;109426;1251;74623;-75
2023/09/01 01:32:35;;;;;;;6.80;4.40;;;;;;;18.20;100.00;99401.50;109439;1251;69807;-73
2023/09/01 01:35:33;;;;;;;7.30;4.40;;;;;;;18.21;100.00;99404.48;109279;1251;72693;-74
2023/09/01 01:38:16;;;;;;;5.10;3.90;;;;;;;18.24;100.00;99403.42;109404;1251;59309;-73
2023/09/01 01:40:47;;;;;;;6.80;4.40;;;;;;;18.25;100.00;99404.02;109295;1251;59412;-75
2023/09/01 01:43:17;;;;;;;5.10;4.50;;;;;;;18.27;100.00;99404.80;109357;1251;73867;-75
2023/09/01 01:45:44;;;;;;;4.40;4.10;;;;;;;18.24;100.00;99400.54;109310;1251;70376;-75
2023/09/01 01:48:12;;;;;;;4.80;4.30;;;;;;;18.19;100.00;99398.52;109395;1251;72473;-73
2023/09/01 01:50:41;;;;;;;5.00;4.30;;;;;;;18.16;100.00;99399.96;109246;1253;60479;-73
2023/09/01 01:53:08;;;;;;;4.90;4.30;;;;;;;18.09;100.00;99398.16;109398;1251;60031;-73
2023/09/01 01:55:36;;;;;;;5.00;4.50;;;;;;;18.05;100.00;99394.91;109351;1251;74676;-73
2023/09/01 01:58:05;;;;;;;7.40;4.70;;;;;;;18.00;100.00;99392.56;109275;1251;69798;-75
2023/09/01 02:00:33;;;;;;;12.40;4.70;;;;;;;17.96;100.00;99391.75;109248;1251;72684;-73
2023/09/01 02:03:00;;;;;;;5.80;4.70;;;;;;;17.92;100.00;99387.27;109253;1251;61701;-73
2023/09/01 02:05:28;;;;;;;6.10;4.30;;;;;;;17.88;100.00;99392.51;109341;1251;60002;-73
2023/09/01 02:07:56;;;;;;;4.90;4.50;;;;;;;17.85;100.00;99397.97;109402;1251;73715;-73
2023/09/01 02:10:23;;;;;;;6.60;5.00;;;;;;;17.85;100.00;99401.38;109436;1251;71321;-75
2023/09/01 02:12:51;;;;;;;6.00;4.60;;;;;;;17.83;100.00;99402.89;109388;1251;73193;-73
2023/09/01 02:15:18;;;;;;;6.70;4.80;;;;;;;17.82;100.00;99402.42;109368;1251;60418;-74
2023/09/01 02:17:46;;;;;;;5.20;4.70;;;;;;;17.81;100.00;99405.71;109376;1251;59134;-73
2023/09/01 02:20:16;;;;;;;6.40;4.80;;;;;;;17.79;100.00;99412.71;109392;1251;74559;-75
2023/09/01 02:22:44;;;;;;;25.30;6.20;;;;;;;17.77;100.00;99418.67;109470;1251;70743;-75
2023/09/01 02:25:12;;;;;;;4.40;4.00;;;;;;;17.78;100.00;99423.75;109367;1251;71234;-75
2023/09/01 02:27:41;;;;;;;4.70;4.20;;;;;;;17.82;100.00;99430.08;109342;1251;61622;-75
2023/09/01 02:30:09;;;;;;;5.00;4.60;;;;;;;17.86;100.00;99432.02;109384;1251;58996;-75
2023/09/01 02:32:37;;;;;;;5.40;4.60;;;;;;;17.87;100.00;99429.63;109269;1251;74597;-75
2023/09/01 02:35:06;;;;;;;5.50;4.30;;;;;;;17.89;100.00;99430.41;109388;1251;71251;-75
2023/09/01 02:37:33;;;;;;;5.30;4.40;;;;;;;17.90;100.00;99433.38;109365;1251;72953;-75
2023/09/01 02:40:01;;;;;;;5.20;4.70;;;;;;;17.89;100.00;99437.13;109304;1251;61710;-75
2023/09/01 02:42:28;;;;;;;5.00;4.60;;;;;;;17.87;100.00;99437.27;109443;1251;59326;-75
2023/09/01 02:44:56;;;;;;;7.40;5.10;;;;;;;17.83;100.00;99436.05;109397;1251;74632;-75
2023/09/01 02:47:24;;;;;;;7.00;4.70;;;;;;;17.81;100.00;99438.47;109388;1252;70492;-73
2023/09/01 02:49:52;;;;;;;5.00;4.50;;;;;;;17.80;100.00;99434.29;109396;1251;71461;-73
2023/09/01 02:52:19;;;;;;;5.90;5.30;;;;;;;17.77;100.00;99433.59;109357;1252;60422;-73
2023/09/01 02:54:47;;;;;;;7.00;5.30;;;;;;;17.73;100.00;99437.23;109414;1251;59259;-73
2023/09/01 02:57:14;;;;;;;5.60;5.00;;;;;;;17.70;100.00;99435.34;109305;1251;73356;-72
2023/09/01 02:59:42;;;;;;;5.80;5.20;;;;;;;17.66;100.00;99435.05;109363;1251;70951;-73
2023/09/01 03:02:09;;;;;;;5.80;5.30;;;;;;;17.63;100.00;99434.52;109433;1251;72678;-73
2023/09/01 03:04:37;;;;;;;5.30;4.80;;;;;;;17.58;100.00;99435.95;109401;1251;60615;-73
2023/09/01 03:07:04;;;;;;;6.10;5.50;;;;;;;17.52;100.00;99432.92;109269;1251;59011;-73
2023/09/01 03:09:32;;;;;;;7.60;5.30;;;;;;;17.49;100.00;99437.77;109380;1251;74571;-73
2023/09/01 03:11:59;;;;;;;8.20;5.30;;;;;;;17.48;100.00;99440.13;109431;1251;69819;-73
2023/09/01 03:14:27;;;;;;;5.10;4.60;;;;;;;17.49;100.00;99443.95;109348;1251;72953;-73
2023/09/01 03:16:54;;;;;;;5.80;5.20;;;;;;;17.50;100.00;99447.48;109380;1251;59337;-73
2023/09/01 03:19:22;;;;;;;6.10;5.50;;;;;;;17.49;100.00;99448.04;109265;1251;59419;-73
2023/09/01 03:21:49;;;;;;;8.20;5.30;;;;;;;17.49;100.00;99450.54;109367;1251;73338;-73
2023/09/01 03:24:17;;;;;;;6.20;5.10;;;;;;;17.50;100.00;99448.67;109401;1251;69952;-73
2023/09/01 03:26:44;;;;;;;6.20;5.40;;;;;;;17.53;100.00;99453.45;109403;1252;72308;-73
2023/09/01 03:29:12;;;;;;;8.40;5.60;;;;;;;17.53;100.00;99458.75;109416;1251;60101;-74
2023/09/01 03:31:39;;;;;;;8.00;5.50;;;;;;;17.52;100.00;99461.18;109416;1251;59352;-73
2023/09/01 03:34:08;;;;;;;9.10;6.50;;;;;;;17.49;100.00;99467.37;109411;1251;73779;-73
2023/09/01 03:36:36;;;;;;;6.70;5.60;;;;;;;17.45;100.00;99466.55;109285;1251;71109;-73
2023/09/01 03:39:07;;;;;;;7.40;5.80;;;;;;;17.39;100.00;99466.54;109338;1251;71390;-74
2023/09/01 03:41:36;;;;;;;8.50;6.40;;;;;;;17.33;100.00;99474.59;109342;1253;59491;-73
2023/09/01 03:44:04;;;;;;;6.80;6.20;;;;;;;17.26;100.00;99474.30;109273;1253;59222;-72
2023/09/01 03:46:31;;;;;;;10.10;6.00;;;;;;;17.19;100.00;99474.73;109409;1251;74607;-74
2023/09/01 03:48:59;;;;;;;6.90;6.10;;;;;;;17.18;100.00;99477.65;109437;1251;69990;-74
2023/09/01 03:51:26;;;;;;;6.30;5.70;;;;;;;17.21;100.00;99481.55;109286;1251;72484;-73
2023/09/01 03:53:54;;;;;;;7.20;6.50;;;;;;;17.22;100.00;99485.34;109360;1251;61865;-74
2023/09/01 03:56:22;;;;;;;7.10;6.30;;;;;;;17.25;100.00;99489.98;109356;1251;60496;-73
2023/09/01 03:58:50;;;;;;;7.40;6.70;;;;;;;17.27;100.00;99493.41;109423;1250;74578;-74
2023/09/01 04:01:18;;;;;;;6.80;6.10;;;;;;;17.28;100.00;99494.72;109437;1250;70173;-74
2023/09/01 04:03:47;;;;;;;9.40;6.60;;;;;;;17.32;100.00;99503.35;109267;1251;72946;-74
2023/09/01 04:06:15;;;;;;;9.90;6.00;;;;;;;17.36;100.00;99507.73;109311;1251;61644;-74
2023/09/01 04:08:42;;;;;;;11.70;7.20;;;;;;;17.38;100.00;99496.79;109355;1251;60068;-73
2023/09/01 04:11:10;;;;;;;6.80;6.20;;;;;;;17.39;100.00;99496.17;109490;1250;74684;-74
2023/09/01 04:13:37;;;;;;;8.60;6.30;;;;;;;17.38;100.00;99494.49;109305;1250;70783;-74
2023/09/01 04:16:05;;;;;;;8.00;5.70;;;;;;;17.37;100.00;99490.29;109384;1251;72695;-74
2023/09/01 04:18:33;;;;;;;7.10;6.50;;;;;;;17.38;100.00;99490.89;109254;1251;61671;-74
2023/09/01 04:21:01;;;;;;;12.90;6.50;;;;;;;17.38;100.00;99487.74;109477;1251;60043;-74
2023/09/01 04:23:28;;;;;;;8.90;6.60;;;;;;;17.38;100.00;99491.26;109441;1251;74634;-74
2023/09/01 04:25:56;;;;;;;7.00;6.30;;;;;;;17.38;100.00;99494.13;109306;1255;71588;-74
2023/09/01 04:28:24;;;;;;;10.70;6.20;;;;;;;17.39;100.00;99493.17;109371;1251;72675;-73
2023/09/01 04:30:53;;;;;;;7.70;6.90;;;;;;;17.42;100.00;99494.92;109306;1251;60352;-74
2023/09/01 04:33:20;;;;;;;8.80;7.10;;;;;;;17.45;100.00;99496.34;109299;1251;58956;-74
2023/09/01 04:36:04;;;;;;;10.90;7.00;;;;;;;17.48;100.00;99490.10;109399;1251;74618;-74
2023/09/01 04:38:32;;;;;;;7.40;6.70;;;;;;;17.53;100.00;99491.79;109344;1251;70927;-74
2023/09/01 04:41:00;;;;;;;7.40;6.30;;;;;;;17.59;100.00;99490.66;109309;1251;72736;-74
2023/09/01 04:43:29;;;;;;;6.90;5.90;;;;;;;17.62;100.00;99480.02;109277;1251;61669;-74
2023/09/01 04:45:57;;;;;;;8.20;6.20;;;;;;;17.64;100.00;99476.30;109275;1251;60883;-74
2023/09/01 04:48:27;;;;;;;6.60;6.00;;;;;;;17.67;100.00;99473.82;109299;1251;75119;-73
2023/09/01 04:50:54;;;;;;;7.50;6.40;;;;;;;17.69;100.00;99472.29;109300;1251;70952;-74
2023/09/01 04:53:23;;;;;;;9.20;6.10;;;;;;;17.71;100.00;99477.64;109294;1251;71424;-73
2023/09/01 04:55:51;;;;;;;8.20;6.20;;;;;;;17.76;100.00;99480.71;109425;1252;59016;-73
2023/09/01 04:58:19;;;;;;;8.70;6.30;;;;;;;17.81;100.00;99481.77;109426;1251;59985;-73
2023/09/01 05:00:47;;;;;;;6.50;5.80;;;;;;;17.89;100.00;99485.06;109290;1251;73368;-73
2023/09/01 05:03:15;;;;;;;7.60;6.00;;;;;;;17.97;100.00;99488.26;109403;1251;70955;-73
2023/09/01 05:05:43;;;;;;;9.00;6.20;;;;;;;18.02;100.00;99490.04;109373;1251;72938;-73
2023/09/01 05:08:11;;;;;;;6.40;5.40;;;;;;;18.10;100.00;99494.50;109299;1253;59014;-73
2023/09/01 05:10:39;;;;;;;8.80;6.00;;;;;;;18.17;100.00;99493.65;109326;1251;60541;-74
2023/09/01 05:13:06;;;;;;;8.80;6.00;;;;;;;18.27;100.00;99499.23;109370;1251;75060;-73
2023/09/01 05:15:35;;;;;;;6.60;5.90;;;;;;;18.38;100.00;99498.29;109371;1251;71125;-73
2023/09/01 05:18:02;;;;;;;9.60;5.90;;;;;;;18.50;100.00;99502.31;109316;1251;73165;-73
2023/09/01 05:20:30;;;;;;;7.40;5.40;;;;;;;18.61;100.00;99508.13;109326;1251;60543;-73
2023/09/01 05:22:58;;;;;;;11.80;5.70;;;;;;;18.73;100.00;99510.48;109322;1251;59995;-73
2023/09/01 05:25:27;;;;;;;6.80;5.40;;;;;;;18.86;100.00;99514.77;109281;1251;74677;-74
2023/09/01 05:27:55;;;;;;;7.00;5.60;;;;;;;18.98;100.00;99517.91;109322;1250;69767;-75
2023/09/01 05:30:22;;;;;;;6.00;5.50;;;;;;;19.08;100.00;99517.52;109397;1252;72703;-73
2023/09/01 05:32:50;;;;;;;7.20;5.40;;;;;;;19.19;100.00;99520.14;109322;1251;60235;-73
2023/09/01 05:35:17;;;;;;;7.70;5.30;;;;;;;19.30;100.00;99528.80;109433;1251;59323;-75
2023/09/01 05:37:45;;;;;;;6.50;5.00;;;;;;;19.42;100.00;99526.59;109423;1251;73469;-75
2023/09/01 05:40:13;;;;;;;4.90;4.50;;;;;;;19.52;100.00;99526.88;109312;1251;69675;-75
2023/09/01 05:42:40;;;;;;;5.50;5.00;;;;;;;19.63;100.00;99526.65;109300;1251;71382;-74
2023/09/01 05:45:08;;;;;;;7.70;5.80;;;;;;;19.74;100.00;99522.48;109379;1251;60129;-73
2023/09/01 05:47:36;;;;;;;5.70;5.10;;;;;;;19.86;100.00;99517.20;109447;1251;60576;-73
2023/09/01 05:50:05;;;;;;;5.00;4.60;;;;;;;19.97;100.00;99509.92;109321;1251;74619;-73
2023/09/01 05:52:32;;;;;;;6.50;5.30;;;;;;;20.06;100.00;99507.37;109447;1251;71146;-73
2023/09/01 05:55:00;;;;;;;7.20;5.30;;;;;;;20.17;100.00;99506.93;109417;1251;71497;-74
2023/09/01 05:57:27;;;;;;;5.40;4.40;;;;;;;20.25;100.00;99505.77;109376;1251;59036;-73
2023/09/01 05:59:55;;;;;;;6.00;5.00;;;;;;;20.34;100.00;99501.91;109426;1251;59028;-73
2023/09/01 06:02:22;;;;;;;4.70;4.30;;;;;;;20.36;100.00;99496.59;109401;1251;74589;-73
2023/09/01 06:04:50;;;;;;;5.60;5.00;;;;;;;20.34;100.00;99493.36;109451;1251;71538;-73
2023/09/01 06:07:17;;;;;;;7.10;5.40;;;;;;;20.32;100.00;99491.19;109381;1252;72695;-73
2023/09/01 06:09:45;;;;;;;5.90;5.00;;;;;;;20.32;100.00;99493.46;109395;1251;59071;-74
2023/09/01 06:12:14;;;;;;;5.90;4.80;;;;;;;20.34;100.00;99492.98;109401;1251;59173;-73
2023/09/01 06:14:42;;;;;;;9.70;5.60;;;;;;;20.37;100.00;99490.77;109450;1251;74631;-74
2023/09/01 06:17:11;;;;;;;5.90;5.10;;;;;;;20.44;100.00;99490.25;109429;1251;69472;-73
2023/09/01 06:19:39;;;;;;;5.30;4.80;;;;;;;20.51;100.00;99490.98;109401;1251;72696;-73
2023/09/01 06:22:06;;;;;;;7.80;5.70;;;;;;;20.60;100.00;99493.52;109449;1251;60555;-73
2023/09/01 06:24:34;;;;;;;9.30;5.10;;;;;;;20.69;100.00;99495.36;109431;1251;60512;-74
2023/09/01 06:27:03;;;;;;;9.70;5.40;;;;;;;20.73;100.00;99494.62;109392;1251;74623;-75
2023/09/01 06:29:30;;;;;;;6.60;5.70;;;;;;;20.75;100.00;99493.78;109425;1251;70789;-73
2023/09/01 06:31:58;;;;;;;7.60;4.60;;;;;;;20.73;100.00;99494.47;109412;1251;72736;-73
2023/09/01 06:34:25;;;;;;;9.60;5.40;;;;;;;20.70;100.00;99488.11;109423;1251;59343;-73
2023/09/01 06:36:53;;;;;;;6.30;5.20;;;;;;;20.68;100.00;99487.96;109491;1251;59993;-72
2023/09/01 06:39:20;;;;;;;6.70;5.40;;;;;;;20.67;100.00;99494.04;109403;1251;74626;-74
2023/09/01 06:41:48;;;;;;;6.50;4.70;;;;;;;20.69;100.00;99496.42;109417;1251;69292;-74
2023/09/01 06:44:15;;;;;;;9.10;5.20;;;;;;;20.73;100.00;99499.28;109386;1251;71458;-74
2023/09/01 06:46:43;;;;;;;6.90;4.70;;;;;;;20.85;100.00;99500.41;109402;1251;60051;-73
2023/09/01 06:49:10;;;;;;;6.90;6.20;;;;;;;21.00;100.00;99503.09;109489;1251;60034;-73
2023/09/01 06:51:37;;;;;;;7.80;5.50;;;;;;;21.09;100.00;99499.01;109388;1251;74676;-73
2023/09/01 06:54:08;;;;;;;9.50;5.60;;;;;;;21.12;100.00;99500.52;109384;1251;70528;-73
2023/09/01 06:56:36;;;;;;;6.00;5.40;;;;;;;21.13;100.00;99501.17;109428;1251;72486;-74
2023/09/01 06:59:03;;;;;;;6.70;4.90;;;;;;;21.13;100.00;99497.98;109420;1251;59315;-73
2023/09/01 07:01:31;;;;;;;10.10;5.10;;;;;;;21.17;100.00;99495.58;109448;1251;60025;-74
2023/09/01 07:03:59;;;;;;;6.10;5.50;;;;;;;21.27;100.00;99494.73;109413;1251;75057;-74
2023/09/01 07:06:26;;;;;;;6.20;5.10;;;;;;;21.39;100.00;99490.23;109446;1251;70789;-72
2023/09/01 07:08:54;;;;;;;6.00;5.50;;;;;;;21.48;100.00;99480.21;109440;1251;71848;-74
2023/09/01 07:11:21;;;;;;;6.40;5.20;;;;;;;21.58;100.00;99478.58;109367;1251;62162;-74
2023/09/01 07:13:49;;;;;;;6.30;4.60;;;;;;;21.65;100.00;99470.86;109428;1251;60033;-74
2023/09/01 07:16:16;;;;;;;8.90;5.30;;;;;;;21.75;100.00;99468.10;109425;1251;74627;-74
2023/09/01 07:18:44;;;;;;;8.30;5.40;;;;;;;21.84;100.00;99466.27;109422;1251;71317;-73
2023/09/01 07:21:11;;;;;;;5.00;4.60;;;;;;;21.92;100.00;99469.92;109414;1251;71744;-74
2023/09/01 07:23:39;;;;;;;6.50;5.40;;;;;;;22.02;100.00;99470.68;109401;1251;60044;-73
2023/09/01 07:26:08;;;;;;;6.00;5.00;;;;;;;22.07;100.00;99466.36;109441;1251;59123;-74
2023/09/01 07:28:35;;;;;;;6.10;5.00;;;;;;;22.01;100.00;99459.88;109429;1252;74647;-74
2023/09/01 07:31:09;;;;;;;7.80;5.00;;;;;;;21.89;100.00;99457.66;109370;1251;70973;-75
2023/09/01 07:33:37;;;;;;;7.30;4.80;;;;;;;21.79;100.00;99457.91;109421;1251;73195;-74
2023/09/01 07:36:04;;;;;;;5.40;4.40;;;;;;;21.78;100.00;99463.39;109417;1252;60231;-74
2023/09/01 07:38:32;;;;;;;5.60;4.90;;;;;;;21.85;100.00;99467.77;109370;1251;60025;-74
2023/09/01 07:40:59;;;;;;;5.50;5.00;;;;;;;21.96;100.00;99471.57;109377;1251;74675;-75
2023/09/01 07:43:27;;;;;;;6.50;5.10;;;;;;;22.10;100.00;99472.31;109444;1251;71144;-74
2023/09/01 07:45:54;;;;;;;5.60;5.10;;;;;;;22.22;100.00;99463.30;109415;1251;72436;-74
2023/09/01 07:48:22;;;;;;;7.00;5.00;;;;;;;22.30;100.00;99462.67;109385;1251;59102;-74
2023/09/01 07:50:50;;;;;;;15.30;5.20;;;;;;;22.39;100.00;99466.56;109443;1251;58993;-74
2023/09/01 07:53:17;;;;;;;4.80;4.30;;;;;;;22.49;100.00;99464.79;109416;1251;74607;-74
2023/09/01 07:55:45;;;;;;;7.70;5.10;;;;;;;22.57;100.00;99458.73;109401;1251;72380;-73
2023/09/01 07:58:12;;;;;;;5.90;4.80;;;;;;;22.58;100.00;99453.67;109409;1251;71629;-74
2023/09/01 08:00:40;;;;;;;7.40;4.60;;;;;;;22.59;100.00;99453.91;109400;1251;60478;-74
2023/09/01 08:03:10;;;;;;;6.40;4.60;;;;;;;22.67;100.00;99452.19;109432;1251;59340;-74
2023/09/01 08:05:41;;;;;;;8.20;4.70;;;;;;;22.80;100.00;99444.83;109418;1251;73420;-75
2023/09/01 08:08:13;;;;;;;6.40;4.70;;;;;;;22.86;100.00;99445.40;109436;1251;70921;-75
2023/09/01 08:10:41;;;;;;;4.50;4.10;;;;;;;22.94;100.00;99440.23;109391;1251;72750;-73
2023/09/01 08:13:09;;;;;;;8.10;4.40;;;;;;;23.04;100.00;99441.84;109472;1251;59784;-74
2023/09/01 08:15:36;;;;;;;5.20;4.60;;;;;;;23.21;100.00;99442.55;109444;1251;59961;-74
2023/09/01 08:18:05;;;;;;;5.80;4.40;;;;;;;23.38;100.00;99438.48;109423;1251;74697;-75
2023/09/01 08:20:32;;;;;;;6.30;4.40;;;;;;;23.52;100.00;99439.20;109434;1253;69518;-74
2023/09/01 08:23:00;;;;;;;5.20;4.70;;;;;;;23.58;100.00;99435.27;109411;1251;72783;-74
2023/09/01 08:25:27;;;;;;;4.80;4.40;;;;;;;23.64;100.00;99437.30;109429;1252;60115;-74
2023/09/01 08:27:55;;;;;;;11.10;5.00;;;;;;;23.65;100.00;99435.54;109454;1251;58950;-75
2023/09/01 08:30:23;;;;;;;6.70;4.50;;;;;;;23.62;100.00;99437.83;109407;1251;73405;-75
2023/09/01 08:32:50;;;;;;;5.70;4.20;;;;;;;23.69;100.00;99445.90;109413;1251;71120;-74
2023/09/01 08:35:18;;;;;;;5.10;4.70;;;;;;;23.85;100.00;99440.98;109418;1251;71061;-74
2023/09/01 08:37:45;;;;;;;5.40;4.90;;;;;;;23.89;100.00;99438.77;109466;1252;60074;-73
2023/09/01 08:40:13;;;;;;;5.40;4.90;;;;;;;23.92;100.00;99437.84;109446;1251;59252;-74
2023/09/01 08:42:48;;;;;;;7.30;5.10;;;;;;;23.85;100.00;99437.52;109465;1251;74459;-75
2023/09/01 08:45:17;;;;;;;7.50;5.00;;;;;;;23.79;100.00;99440.23;109428;1253;69650;-75
2023/09/01 08:47:45;;;;;;;5.10;4.60;;;;;;;23.76;100.00;99442.52;109439;1252;72670;-74
2023/09/01 08:50:14;;;;;;;7.00;4.40;;;;;;;23.81;100.00;99444.86;109421;1252;60035;-74
2023/09/01 08:52:44;;;;;;;4.30;3.90;;;;;;;23.95;100.00;99449.41;109438;1251;59971;-74
2023/09/01 08:55:12;;;;;;;4.00;3.70;;;;;;;24.05;100.00;99445.23;109454;1251;75987;-75
2023/09/01 08:57:40;;;;;;;4.70;4.30;;;;;;;24.17;100.00;99435.38;109434;1251;70523;-73
2023/09/01 09:00:08;;;;;;;4.50;4.10;;;;;;;24.20;100.00;99432.14;109355;1251;73220;-74
2023/09/01 09:02:39;;;;;;;5.80;4.10;;;;;;;24.21;100.00;99434.08;109403;1251;60170;-74
2023/09/01 09:05:22;;;;;;;6.00;4.20;;;;;;;24.30;100.00;99437.74;109434;1253;58872;-74
2023/09/01 09:08:01;;;;;;;11.10;4.90;;;;;;;24.39;100.00;99435.45;109476;1251;73936;-73
2023/09/01 09:10:42;;;;;;;4.70;4.20;;;;;;;24.45;100.00;99435.58;109471;1251;71127;-74
2023/09/01 09:13:30;;;;;;;8.90;4.40;;;;;;;24.46;100.00;99435.42;109377;1251;71653;-75
2023/09/01 09:16:06;;;;;;;4.30;3.90;;;;;;;24.53;100.00;99439.67;109452;1251;59881;-73
2023/09/01 09:18:34;;;;;;;4.40;4.00;;;;;;;24.64;100.00;99438.85;109446;1251;59005;-74
2023/09/01 09:21:02;;;;;;;6.30;5.10;;;;;;;24.68;100.00;99439.40;109408;1251;74691;-74
2023/09/01 09:23:43;;;;;;;5.00;4.50;;;;;;;24.59;100.00;99440.92;109458;1251;69821;-73
2023/09/01 09:26:11;;;;;;;4.30;4.00;;;;;;;24.50;100.00;99440.73;109398;1251;62508;-73
2023/09/01 09:28:39;;;;;;;8.80;5.00;;;;;;;24.40;100.00;99443.73;109387;1251;60086;-74
2023/09/01 09:31:07;;;;;;;4.50;4.10;;;;;;;24.39;100.00;99444.44;109464;1251;60087;-74
2023/09/01 09:33:37;;;;;;;4.30;4.00;;;;;;;24.40;100.00;99438.54;109446;1256;66645;-74
2023/09/01 09:36:04;;;;;;;9.10;3.90;;;;;;;24.45;100.00;99442.61;109468;1253;71412;-74
2023/09/01 09:38:42;;;;;;;4.50;3.70;;;;;;;24.51;100.00;99438.62;109457;1251;72456;-73
2023/09/01 09:41:10;;;;;;;4.70;4.10;;;;;;;24.62;100.00;99437.09;109390;1251;60129;-77
2023/09/01 09:43:50;;;;;;;6.50;4.30;;;;;;;24.68;100.00;99441.56;109447;1251;58987;-74
2023/09/01 09:46:19;;;;;;;5.20;4.10;;;;;;;24.73;100.00;99446.81;109428;1251;74663;-75
2023/09/01 09:48:47;;;;;;;5.80;4.80;;;;;;;24.77;100.00;99449.09;109408;1251;70938;-75
2023/09/01 09:51:16;;;;;;;6.10;5.20;;;;;;;24.82;100.00;99450.58;109386;1251;63728;-74
2023/09/01 09:53:43;;;;;;;5.20;4.60;;;;;;;24.81;100.00;99451.77;109429;1251;59525;-74
2023/09/01 09:56:20;;;;;;;7.30;4.60;;;;;;;24.68;100.00;99454.10;109419;1253;58929;-74
2023/09/01 09:58:47;;;;;;;5.40;4.90;;;;;;;24.58;100.00;99456.14;109438;1252;74625;-74
2023/09/01 10:01:21;;;;;;;5.30;4.80;;;;;;;24.59;100.00;99458.17;109405;1251;70932;-74
2023/09/01 10:03:49;;;;;;;;;;;;;;;24.62;100.00;99454.96;109370;1252;71508;-74
2023/09/01 10:06:17;;;;;;;5.20;4.50;;;;;;;24.74;100.00;99463.52;109425;1251;58971;-74
2023/09/01 10:08:45;;;;;;;8.80;5.20;;;;;;;24.83;100.00;99462.90;109408;1251;60481;-74
2023/09/01 10:11:13;;;;;;;5.20;4.70;;;;;;;24.88;100.00;99462.31;109449;1251;74647;-74
2023/09/01 10:13:47;;;;;;;5.60;5.10;;;;;;;24.84;100.00;99468.92;109401;1251;69730;-74
2023/09/01 10:16:18;;;;;;;5.70;5.00;;;;;;;24.69;100.00;99469.76;109398;1251;72474;-75
2023/09/01 10:18:49;;;;;;;6.50;4.90;;;;;;;24.64;100.00;99468.27;109374;1251;58982;-75
2023/09/01 10:21:16;;;;;;;5.50;4.80;;;;;;;24.69;100.00;99468.40;109423;1251;59316;-74
2023/09/01 10:23:44;;;;;;;4.90;4.30;;;;;;;24.69;100.00;99472.88;109440;1251;72826;-75
2023/09/01 10:26:24;;;;;;;5.40;4.90;;;;;;;24.62;100.00;99476.55;109403;1251;69847;-73
2023/09/01 10:28:54;;;;;;;4.70;4.40;;;;;;;24.43;100.00;99471.13;109459;1251;71356;-73
2023/09/01 10:31:23;;;;;;;5.30;4.30;;;;;;;24.30;100.00;99473.06;109378;1253;60067;-74
2023/09/01 10:34:13;;;;;;;4.00;3.70;;;;;;;24.34;100.00;99475.20;109440;1251;60005;-75
2023/09/01 10:36:44;;;;;;;3.70;3.40;;;;;;;24.46;100.00;99469.94;109444;1251;74778;-74
2023/09/01 10:39:27;;;;;;;7.00;3.70;;;;;;;24.61;100.00;99469.23;109428;1251;71638;-74
2023/09/01 10:42:07;;;;;;;5.50;3.50;;;;;;;24.87;100.00;99460.87;109362;1251;72700;-74
2023/09/01 10:44:44;;;;;;;3.90;3.60;;;;;;;25.17;100.00;99465.19;109394;1251;59201;-74
2023/09/01 10:47:30;;;;;;;4.90;3.40;;;;;;;25.46;100.00;99464.09;109386;1253;59442;-75
2023/09/01 10:49:58;;;;;;;3.70;3.40;;;;;;;25.60;100.00;99464.69;109431;1251;65786;-75
2023/09/01 10:52:28;;;;;;;3.70;3.40;;;;;;;25.53;100.00;99466.40;109397;1251;70835;-75
2023/09/01 10:55:05;;;;;;;6.40;3.40;;;;;;;25.47;100.00;99463.77;109376;1251;71933;-73
2023/09/01 10:57:48;;;;;;;3.70;3.40;;;;;;;25.52;100.00;99462.04;109421;1253;59640;-74
2023/09/01 11:00:26;;;;;;;3.80;3.20;;;;;;;25.64;100.00;99463.36;109477;1251;60037;-76
2023/09/01 11:02:54;;;;;;;2.90;2.70;;;;;;;25.72;100.00;99463.27;109449;1251;74787;-75
2023/09/01 11:05:40;;;;;;;3.50;3.30;;;;;;;25.74;100.00;99460.95;109397;1253;71552;-74
2023/09/01 11:08:10;;;;;;;4.10;2.90;;;;;;;25.67;100.00;99463.26;109399;1252;70565;-74
2023/09/01 11:10:38;;;;;;;3.60;3.00;;;;;;;25.66;100.00;99461.41;109392;1251;59270;-75
2023/09/01 11:13:15;;;;;;;3.70;3.00;;;;;;;25.63;100.00;99466.77;109399;1251;59032;-76
2023/09/01 11:15:47;;;;;;;4.30;3.30;;;;;;;25.62;100.00;99467.67;109404;1253;74768;-75
2023/09/01 11:18:16;;;;;;;3.40;3.20;;;;;;;25.53;100.00;99470.23;109427;1253;69295;-74
2023/09/01 11:20:45;;;;;;;3.30;3.00;;;;;;;25.32;100.00;99474.20;109429;1251;72713;-74
2023/09/01 11:23:15;;;;;;;3.40;3.20;;;;;;;25.17;100.00;99479.41;109382;1251;59894;-74
2023/09/01 11:25:42;;;;;;;4.20;3.50;;;;;;;25.15;100.00;99477.95;109313;1251;58994;-74